Time;durP1;ratioP1;P1;durP2;ratioP2;P2;SDS_P1;SDS_P2;PMS_P1;PMS_P2;Temp;Humidity;BMP_temperature;BMP_pressure;BME280_temperature;BME280_humidity;BME280_pressure;Samples;Min_cycle;Max_cycle;Signal;HPM_P1;HPM_P2
2022/06/09 00:01:49;;;;;;;;;3.50;1.50;;;;;17.48;60.57;101091.28;5051651;28;45462;-64
2022/06/09 00:04:34;;;;;;;;;3.75;1.00;;;;;17.45;60.68;101096.84;5068369;28;45438;-63
2022/06/09 00:07:10;;;;;;;;;3.00;2.50;;;;;17.43;60.74;101097.94;5069496;28;45811;-63
2022/06/09 00:09:43;;;;;;;;;2.75;1.75;;;;;17.43;60.56;101105.94;5069350;27;45417;-62
2022/06/09 00:12:09;;;;;;;;;1.75;1.75;;;;;17.44;60.60;101108.47;5069953;28;46422;-63
2022/06/09 00:14:36;;;;;;;;;4.00;2.00;;;;;17.41;60.58;101102.56;5071732;28;45517;-62
2022/06/09 00:17:02;;;;;;;;;2.00;2.00;;;;;17.36;60.48;101110.06;5072195;28;45460;-63
2022/06/09 00:19:27;;;;;;;;;4.50;2.00;;;;;17.35;60.51;101106.56;5069999;28;45682;-63
2022/06/09 00:21:53;;;;;;;;;4.25;2.50;;;;;17.30;60.74;101114.94;5070601;28;45388;-64
2022/06/09 00:24:19;;;;;;;;;2.00;2.00;;;;;17.28;60.62;101127.50;5070401;28;45334;-64
2022/06/09 00:26:44;;;;;;;;;2.50;1.75;;;;;17.24;60.63;101122.59;5069742;28;45422;-63
2022/06/09 00:29:10;;;;;;;;;4.00;2.00;;;;;17.21;60.58;101120.16;5070363;28;45441;-62
2022/06/09 00:31:35;;;;;;;;;3.50;2.00;;;;;17.17;60.65;101121.38;5070729;28;45718;-62
2022/06/09 00:34:01;;;;;;;;;3.50;2.00;;;;;17.16;60.90;101125.88;5069824;28;45463;-63
2022/06/09 00:36:28;;;;;;;;;2.00;1.00;;;;;17.12;60.89;101132.38;5070049;28;45432;-62
2022/06/09 00:38:55;;;;;;;;;1.00;0.00;;;;;17.11;60.78;101141.34;5070722;28;45315;-62
2022/06/09 00:41:20;;;;;;;;;3.75;1.75;;;;;17.10;60.92;101134.34;5070162;28;45452;-65
2022/06/09 00:43:46;;;;;;;;;2.50;1.50;;;;;17.12;60.88;101126.22;5071877;28;45256;-63
2022/06/09 00:46:19;;;;;;;;;4.00;1.75;;;;;17.11;60.91;101125.38;5069402;28;45267;-64
2022/06/09 00:49:04;;;;;;;;;3.25;1.50;;;;;17.13;60.99;101131.41;5069352;28;45747;-63
2022/06/09 00:51:38;;;;;;;;;2.75;2.00;;;;;17.09;61.02;101130.00;5067646;28;45587;-62
2022/06/09 00:54:16;;;;;;;;;3.50;2.00;;;;;17.09;60.87;101137.97;5068421;28;45552;-61
2022/06/09 00:56:53;;;;;;;;;6.00;3.00;;;;;17.06;60.99;101132.88;5068008;28;45366;-62
2022/06/09 00:59:22;;;;;;;;;4.25;1.25;;;;;17.02;60.95;101140.28;5070699;28;45214;-62
2022/06/09 01:01:48;;;;;;;;;2.25;2.00;;;;;17.00;61.01;101139.56;5069478;28;45478;-64
2022/06/09 01:04:17;;;;;;;;;3.25;2.00;;;;;16.98;60.92;101138.84;5070224;28;45311;-62
2022/06/09 01:07:09;;;;;;;;;1.75;1.75;;;;;16.98;61.13;101141.50;5067512;28;45501;-62
2022/06/09 01:09:35;;;;;;;;;3.00;1.00;;;;;16.97;60.85;101136.28;5063359;28;45521;-62
2022/06/09 01:12:00;;;;;;;;;4.25;2.00;;;;;16.96;61.16;101143.41;5070279;28;46189;-62
2022/06/09 01:14:29;;;;;;;;;4.75;1.25;;;;;16.96;61.08;101139.91;5070197;28;45366;-62
2022/06/09 01:17:00;;;;;;;;;1.50;1.50;;;;;16.95;61.15;101139.06;5072786;28;45322;-55
2022/06/09 01:19:41;;;;;;;;;8.25;1.50;;;;;16.91;61.16;101148.28;5070497;28;45451;-55
2022/06/09 01:23:00;;;;;;;;;3.00;2.00;;;;;16.85;61.13;101147.91;5069454;28;46188;-50
2022/06/09 01:25:38;;;;;;;;;4.00;1.25;;;;;16.82;61.12;101148.97;5025978;28;45396;-53
2022/06/09 01:28:46;;;;;;;;;2.25;1.50;;;;;16.82;61.28;101159.63;5026156;28;45894;-51
2022/06/09 01:31:35;;;;;;;;;3.25;1.75;;;;;16.78;61.33;101155.53;5052162;28;45345;-54
2022/06/09 01:34:23;;;;;;;;;3.25;2.00;;;;;16.73;61.33;101153.22;5066963;28;45411;-53
2022/06/09 01:37:01;;;;;;;;;3.00;2.00;;;;;16.73;61.47;101160.34;5068738;28;45320;-54
2022/06/09 01:39:46;;;;;;;;;4.25;1.75;;;;;16.73;61.47;101163.84;5070335;28;45405;-56
2022/06/09 01:42:25;;;;;;;;;3.50;1.25;;;;;16.67;61.37;101168.81;5068416;28;45452;-53
2022/06/09 01:44:56;;;;;;;;;1.25;1.25;;;;;16.64;61.58;101174.34;5067485;28;45897;-60
2022/06/09 01:47:25;;;;;;;;;4.00;2.00;;;;;16.61;61.41;101167.47;5069038;28;45327;-60
2022/06/09 01:49:56;;;;;;;;;2.75;1.25;;;;;16.59;61.61;101169.41;5066798;28;45362;-60
2022/06/09 01:52:23;;;;;;;;;4.75;2.00;;;;;16.60;61.63;101172.91;5069296;28;45457;-59
2022/06/09 01:54:49;;;;;;;;;2.75;1.00;;;;;16.59;61.57;101179.16;5067183;28;46235;-60
2022/06/09 01:57:26;;;;;;;;;7.00;2.50;;;;;16.57;61.73;101173.13;5068622;28;45592;-60
2022/06/09 01:59:59;;;;;;;;;4.75;2.00;;;;;16.59;61.87;101179.16;5066290;28;45361;-60
2022/06/09 02:02:29;;;;;;;;;4.00;2.00;;;;;16.60;61.90;101188.88;5064253;28;45544;-60
2022/06/09 02:05:12;;;;;;;;;2.00;1.75;;;;;16.59;61.73;101185.34;5059909;28;46319;-60
2022/06/09 02:07:40;;;;;;;;;4.50;3.00;;;;;16.60;62.08;101192.38;5057727;28;45569;-60
2022/06/09 02:10:40;;;;;;;;;1.00;1.00;;;;;16.60;61.91;101195.03;5059818;28;45357;-60
2022/06/09 02:13:11;;;;;;;;;5.00;1.75;;;;;16.61;62.15;101191.41;5042382;28;45558;-60
2022/06/09 02:15:47;;;;;;;;;4.50;2.75;;;;;16.60;62.12;101199.50;5059894;28;45331;-59
2022/06/09 02:18:17;;;;;;;;;3.50;2.00;;;;;16.58;62.00;101191.63;5060026;28;45404;-60
2022/06/09 02:20:48;;;;;;;;;7.75;2.00;;;;;16.57;62.01;101200.56;5056278;28;45463;-60
2022/06/09 02:23:14;;;;;;;;;6.25;2.00;;;;;16.54;62.11;101199.97;5057242;28;45293;-60
2022/06/09 02:25:40;;;;;;;;;5.50;2.00;;;;;16.50;62.15;101202.00;5059689;28;45309;-59
2022/06/09 02:28:07;;;;;;;;;5.25;2.75;;;;;16.48;62.08;101199.47;5059848;28;45321;-59
2022/06/09 02:30:35;;;;;;;;;2.00;1.25;;;;;16.48;62.26;101193.28;5059890;28;45491;-60
2022/06/09 02:33:01;;;;;;;;;3.00;1.75;;;;;16.45;62.14;101197.03;5060022;28;45625;-60
2022/06/09 02:35:27;;;;;;;;;3.75;2.00;;;;;16.44;62.20;101194.50;5061633;28;45378;-60
2022/06/09 02:37:52;;;;;;;;;3.25;2.00;;;;;16.42;62.25;101193.75;5063504;28;45350;-60
2022/06/09 02:40:18;;;;;;;;;5.00;2.00;;;;;16.41;62.23;101205.38;5063105;28;45244;-60
2022/06/09 02:42:44;;;;;;;;;3.00;1.00;;;;;16.38;62.14;101200.28;5063392;28;45419;-60
2022/06/09 02:45:10;;;;;;;;;2.50;0.75;;;;;16.38;62.31;101202.94;5062837;28;46115;-59
2022/06/09 02:47:35;;;;;;;;;2.50;1.00;;;;;16.35;62.43;101200.50;5063208;28;45945;-59
2022/06/09 02:50:02;;;;;;;;;5.50;2.00;;;;;16.32;62.38;101203.41;5063161;28;45369;-59
2022/06/09 02:52:28;;;;;;;;;4.00;3.00;;;;;16.32;62.42;101201.59;5063118;28;45290;-60
2022/06/09 02:54:54;;;;;;;;;3.25;1.75;;;;;16.31;62.41;101205.22;5062730;28;45584;-60
2022/06/09 02:57:23;;;;;;;;;8.50;2.00;;;;;16.29;62.41;101201.84;5063007;28;45375;-60
2022/06/09 02:59:50;;;;;;;;;4.25;1.00;;;;;16.28;62.67;101209.94;5055967;28;45441;-60
2022/06/09 03:02:15;;;;;;;;;6.50;2.00;;;;;16.25;62.63;101202.19;5062880;28;45261;-59
2022/06/09 03:04:41;;;;;;;;;3.50;2.00;;;;;16.25;62.56;101208.34;5062689;28;45405;-60
2022/06/09 03:07:06;;;;;;;;;2.50;1.75;;;;;16.27;62.55;101213.53;5062906;28;45359;-60
2022/06/09 03:09:32;;;;;;;;;4.25;1.75;;;;;16.24;62.68;101217.28;5062836;28;45402;-60
2022/06/09 03:11:57;;;;;;;;;3.00;1.50;;;;;16.23;62.74;101207.63;5062772;28;45189;-60
2022/06/09 03:14:23;;;;;;;;;3.50;1.00;;;;;16.19;62.68;101209.66;5062786;28;45431;-59
2022/06/09 03:16:48;;;;;;;;;4.75;3.25;;;;;16.17;62.83;101208.06;5062644;28;45246;-59
2022/06/09 03:19:13;;;;;;;;;3.00;2.00;;;;;16.13;62.75;101210.13;5062871;28;45268;-59
2022/06/09 03:21:39;;;;;;;;;3.50;2.50;;;;;16.08;62.78;101203.44;5055376;28;45509;-59
2022/06/09 03:24:05;;;;;;;;;8.50;2.00;;;;;16.07;62.97;101197.28;5062537;28;46167;-59
2022/06/09 03:26:30;;;;;;;;;4.75;3.50;;;;;16.06;63.05;101203.56;5062471;28;45683;-59
2022/06/09 03:28:56;;;;;;;;;11.00;2.00;;;;;16.07;62.82;101215.91;5062291;28;45714;-59
2022/06/09 03:31:21;;;;;;;;;3.00;1.50;;;;;16.06;63.03;101211.53;5062601;28;45624;-60
2022/06/09 03:33:47;;;;;;;;;11.75;2.00;;;;;16.03;63.08;101208.25;5050006;28;45401;-59
2022/06/09 03:36:13;;;;;;;;;7.75;3.00;;;;;16.05;63.26;101214.31;5062719;28;45342;-59
2022/06/09 03:38:40;;;;;;;;;3.25;3.25;;;;;16.05;63.14;101223.13;5062404;28;45558;-59
2022/06/09 03:41:07;;;;;;;;;5.75;2.25;;;;;16.05;63.21;101227.59;5062697;28;45311;-59
2022/06/09 03:43:34;;;;;;;;;3.25;2.00;;;;;16.02;63.10;101218.03;5061871;28;46476;-60
2022/06/09 03:46:00;;;;;;;;;1.50;1.50;;;;;16.00;63.24;101233.25;5061812;28;45355;-59
2022/06/09 03:48:26;;;;;;;;;6.75;2.00;;;;;15.99;63.33;101244.00;5062370;28;45421;-59
2022/06/09 03:50:52;;;;;;;;;4.00;2.00;;;;;15.97;63.34;101243.28;5062446;28;45446;-59
2022/06/09 03:53:17;;;;;;;;;2.00;2.00;;;;;15.95;63.25;101245.16;5062053;28;45894;-60
2022/06/09 03:55:43;;;;;;;;;3.00;2.00;;;;;15.91;63.04;101248.06;5062281;28;45519;-60
2022/06/09 03:58:08;;;;;;;;;3.50;3.00;;;;;15.87;63.50;101245.72;5062311;28;45367;-59
2022/06/09 04:00:34;;;;;;;;;2.50;2.50;;;;;15.84;63.53;101251.28;5062271;28;45457;-60
2022/06/09 04:03:00;;;;;;;;;6.75;3.00;;;;;15.84;63.47;101260.09;5061700;28;45497;-59
2022/06/09 04:05:27;;;;;;;;;5.00;2.25;;;;;15.84;63.35;101265.41;5062213;28;45409;-59
2022/06/09 04:07:53;;;;;;;;;5.00;2.25;;;;;15.82;63.63;101267.34;5062121;28;45295;-60
2022/06/09 04:10:22;;;;;;;;;2.00;1.00;;;;;15.84;63.47;101269.88;5061898;28;45646;-59
2022/06/09 04:12:48;;;;;;;;;6.25;2.00;;;;;15.82;63.78;101259.38;5048960;28;46105;-59
2022/06/09 04:15:15;;;;;;;;;4.25;2.25;;;;;15.81;63.87;101263.00;5061653;28;45283;-59
2022/06/09 04:17:42;;;;;;;;;6.25;2.25;;;;;15.81;63.58;101272.78;5062030;28;45311;-59
2022/06/09 04:20:08;;;;;;;;;2.00;2.00;;;;;15.80;63.66;101269.28;5061985;28;45516;-60
2022/06/09 04:22:34;;;;;;;;;5.75;2.00;;;;;15.80;63.74;101271.06;5048264;28;46283;-59
2022/06/09 04:24:59;;;;;;;;;3.50;2.25;;;;;15.81;64.05;101283.41;5061676;28;45322;-59
2022/06/09 04:27:25;;;;;;;;;5.50;1.75;;;;;15.80;64.04;101286.97;5061580;28;45291;-59
2022/06/09 04:29:50;;;;;;;;;5.00;2.00;;;;;15.82;63.95;101285.09;5061636;28;45347;-60
2022/06/09 04:32:17;;;;;;;;;4.00;3.00;;;;;15.85;64.13;101290.16;5061598;28;45847;-60
2022/06/09 04:34:42;;;;;;;;;4.25;2.00;;;;;15.85;63.96;101288.34;5061675;28;45283;-60
2022/06/09 04:37:08;;;;;;;;;4.50;1.50;;;;;15.88;64.04;101295.28;5061483;28;45327;-60
2022/06/09 04:39:34;;;;;;;;;8.75;1.50;;;;;15.91;64.14;101293.22;5061874;28;45506;-60
2022/06/09 04:41:59;;;;;;;;;4.75;3.25;;;;;15.96;64.28;101305.31;5061364;28;46315;-60
2022/06/09 04:44:25;;;;;;;;;3.00;2.00;;;;;15.99;64.15;101300.66;5061278;28;45263;-60
2022/06/09 04:46:50;;;;;;;;;10.00;4.25;;;;;16.01;64.09;101306.69;5061344;28;45374;-60
2022/06/09 04:49:16;;;;;;;;;6.00;3.50;;;;;16.04;64.06;101321.59;5061715;28;45322;-59
2022/06/09 04:51:41;;;;;;;;;3.50;1.50;;;;;16.05;64.50;101317.97;5061304;28;46217;-59
2022/06/09 04:54:07;;;;;;;;;5.00;3.75;;;;;16.07;64.01;101324.84;5061316;28;45308;-59
2022/06/09 04:56:33;;;;;;;;;3.25;3.00;;;;;16.09;64.05;101325.59;5061353;28;45249;-59
2022/06/09 04:58:59;;;;;;;;;4.50;3.00;;;;;16.15;64.25;101334.94;5059830;28;45586;-60
2022/06/09 05:01:29;;;;;;;;;6.00;3.00;;;;;16.17;64.04;101338.31;5061132;28;45246;-60
2022/06/09 05:03:56;;;;;;;;;2.00;2.00;;;;;16.16;64.09;101344.59;5060928;28;45401;-60
2022/06/09 05:06:23;;;;;;;;;6.25;4.00;;;;;16.16;64.29;101339.28;5061396;28;45301;-60
2022/06/09 05:08:50;;;;;;;;;7.00;3.00;;;;;16.15;64.06;101350.88;5060913;28;45528;-59
2022/06/09 05:11:16;;;;;;;;;7.00;4.00;;;;;16.13;63.95;101343.03;5061312;28;45315;-59
2022/06/09 05:13:41;;;;;;;;;8.00;3.00;;;;;16.14;64.20;101343.88;5060657;28;45425;-60
2022/06/09 05:16:08;;;;;;;;;2.00;2.00;;;;;16.16;64.14;101341.94;5061313;28;45455;-59
2022/06/09 05:18:34;;;;;;;;;4.00;3.50;;;;;16.19;63.80;101345.25;5061053;28;45331;-59
2022/06/09 05:21:00;;;;;;;;;8.00;4.25;;;;;16.22;64.09;101351.28;5054813;28;45338;-59
2022/06/09 05:23:27;;;;;;;;;6.75;4.00;;;;;16.26;64.17;101356.25;5053649;28;45347;-59
2022/06/09 05:25:55;;;;;;;;;6.00;3.25;;;;;16.31;64.22;101363.91;5060657;28;45315;-60
2022/06/09 05:28:23;;;;;;;;;5.00;2.00;;;;;16.39;64.11;101365.03;5060544;28;45168;-56
2022/06/09 05:30:48;;;;;;;;;4.00;4.00;;;;;16.46;64.08;101363.63;5052821;28;45524;-58
2022/06/09 05:33:14;;;;;;;;;4.25;3.50;;;;;16.55;63.97;101371.88;5067303;28;45383;-59
2022/06/09 05:35:40;;;;;;;;;5.00;4.00;;;;;16.59;63.87;101368.00;5065500;28;45487;-59
2022/06/09 05:46:19;;;;;;;;;4.00;1.75;;;;;16.87;63.82;101386.31;5060628;28;45333;-60
2022/06/09 05:48:46;;;;;;;;;4.25;3.00;;;;;16.87;63.96;101385.47;5060583;28;45371;-60
2022/06/09 05:51:13;;;;;;;;;6.50;4.50;;;;;16.86;63.70;101384.63;5060519;28;45276;-60
2022/06/09 05:53:39;;;;;;;;;5.50;4.50;;;;;16.80;63.75;101395.72;5060583;28;45292;-60
2022/06/09 05:56:05;;;;;;;;;3.00;1.00;;;;;16.76;63.66;101388.09;5060091;28;45526;-59
2022/06/09 05:58:32;;;;;;;;;5.50;3.00;;;;;16.72;63.75;101395.44;5060076;28;45211;-60
2022/06/09 06:00:59;;;;;;;;;6.75;4.00;;;;;16.71;63.66;101401.72;5060109;28;45315;-53
2022/06/09 06:03:25;;;;;;;;;4.75;2.25;;;;;16.74;63.69;101398.81;5060171;28;45390;-53
2022/06/09 06:08:34;;;;;;;;;5.50;3.00;;;;;16.82;63.63;101399.09;5060505;28;45260;-54
2022/06/09 06:11:00;;;;;;;;;7.25;3.00;;;;;16.89;63.71;101408.31;5068131;28;46303;-54
2022/06/09 06:13:26;;;;;;;;;8.00;3.00;;;;;16.91;63.57;101413.56;5070914;28;45318;-55
2022/06/09 06:15:52;;;;;;;;;4.00;4.00;;;;;16.89;63.58;101413.63;5065420;28;45352;-55
2022/06/09 06:18:17;;;;;;;;;2.25;1.00;;;;;16.85;63.61;101420.19;5064138;28;45224;-55
2022/06/09 06:20:43;;;;;;;;;5.50;3.25;;;;;16.84;63.58;101418.47;5059751;28;45834;-54
2022/06/09 06:23:08;;;;;;;;;7.00;3.25;;;;;16.82;63.54;101422.19;5054180;28;45382;-55
2022/06/09 06:25:34;;;;;;;;;6.00;2.33;;;;;16.82;63.53;101425.72;5063617;28;45161;-55
2022/06/09 06:27:59;;;;;;;;;5.75;3.25;;;;;16.87;63.54;101425.38;5063767;28;45222;-55
2022/06/09 06:30:25;;;;;;;;;6.75;2.00;;;;;16.96;63.76;101422.88;5063144;28;45345;-56
2022/06/09 06:32:50;;;;;;;;;5.00;3.75;;;;;17.14;63.71;101419.78;5063547;28;45207;-54
2022/06/09 06:35:16;;;;;;;;;6.25;2.75;;;;;17.25;63.74;101428.66;5063511;28;45343;-51
2022/06/09 06:37:42;;;;;;;;;5.75;3.50;;;;;17.35;63.73;101426.13;5063712;28;45401;-55
2022/06/09 06:40:10;;;;;;;;;5.00;3.00;;;;;17.37;63.54;101421.53;5062683;28;45345;-54
2022/06/09 06:42:36;;;;;;;;;4.00;2.00;;;;;17.46;63.66;101426.16;5061927;28;45430;-53
2022/06/09 06:45:03;;;;;;;;;12.25;4.25;;;;;17.50;63.49;101430.28;5058587;28;46456;-54
2022/06/09 06:47:29;;;;;;;;;4.75;3.50;;;;;17.59;63.12;101426.91;5074930;28;45373;-50
2022/06/09 06:49:55;;;;;;;;;11.25;7.25;;;;;17.67;63.24;101434.28;5072617;27;45644;-53
2022/06/09 06:52:21;;;;;;;;;5.00;4.50;;;;;17.75;63.19;101437.22;5071776;28;45855;-54
2022/06/09 06:54:46;;;;;;;;;6.50;4.75;;;;;17.82;63.01;101440.28;5071593;28;45521;-57
2022/06/09 06:57:12;;;;;;;;;8.50;3.75;;;;;17.88;63.32;101449.63;5070806;28;45389;-53
2022/06/09 06:59:37;;;;;;;;;6.75;5.50;;;;;17.91;62.70;101439.53;5072349;28;45395;-54
2022/06/09 07:02:03;;;;;;;;;8.50;5.25;;;;;17.95;62.96;101445.50;5071973;28;45277;-54
2022/06/09 07:04:28;;;;;;;;;6.25;3.25;;;;;17.98;62.79;101448.75;5071657;28;45388;-56
2022/06/09 07:06:56;;;;;;;;;5.00;4.25;;;;;18.05;62.81;101451.78;5071566;28;45290;-55
2022/06/09 07:09:22;;;;;;;;;6.50;5.00;;;;;18.13;62.76;101462.69;5072248;27;45517;-55
2022/06/09 07:11:47;;;;;;;;;9.25;3.00;;;;;18.19;62.28;101464.03;5070974;28;45154;-57
2022/06/09 07:14:13;;;;;;;;;6.25;3.75;;;;;18.18;62.30;101463.19;5069813;28;45168;-57
2022/06/09 07:16:38;;;;;;;;;5.00;4.25;;;;;18.19;62.19;101470.22;5072034;28;45238;-56
2022/06/09 07:19:05;;;;;;;;;6.50;4.00;;;;;18.16;62.39;101469.59;5072938;27;45219;-52
2022/06/09 07:21:31;;;;;;;;;3.00;2.00;;;;;18.17;62.09;101468.63;5070477;28;45381;-59
2022/06/09 07:23:56;;;;;;;;;10.25;4.00;;;;;18.17;61.97;101479.28;5070227;28;45157;-56
2022/06/09 07:26:22;;;;;;;;;6.50;5.00;;;;;18.19;62.03;101488.03;5071632;28;46283;-57
2022/06/09 07:28:48;;;;;;;;;7.50;6.00;;;;;18.17;61.88;101480.16;5071868;27;45463;-55
2022/06/09 07:31:13;;;;;;;;;7.25;4.00;;;;;18.24;61.57;101484.00;5068882;28;45417;-53
2022/06/09 07:33:41;;;;;;;;;7.50;4.50;;;;;18.28;61.38;101489.97;5070764;28;45376;-55
2022/06/09 07:36:10;;;;;;;;;6.00;4.75;;;;;18.34;61.40;101489.47;5071254;27;45331;-53
2022/06/09 07:38:36;;;;;;;;;8.00;6.00;;;;;18.37;61.40;101489.22;5069455;28;45506;-53
2022/06/09 07:41:02;;;;;;;;;7.75;3.25;;;;;18.35;61.03;101497.34;5071451;28;45551;-55
2022/06/09 07:43:27;;;;;;;;;4.75;4.25;;;;;18.37;60.73;101497.22;5070833;28;45443;-56
2022/06/09 07:45:53;;;;;;;;;4.25;2.00;;;;;18.36;61.20;101504.38;5073003;28;45409;-55
2022/06/09 07:48:21;;;;;;;;;6.75;4.50;;;;;18.37;60.65;101500.75;5069892;28;45988;-59
2022/06/09 07:50:49;;;;;;;;;7.00;4.75;;;;;18.38;60.39;101502.44;5072121;27;45312;-57
2022/06/09 07:53:15;;;;;;;;;8.75;7.00;;;;;18.39;60.69;101501.47;5068938;28;45388;-55
2022/06/09 07:55:41;;;;;;;;;8.50;4.75;;;;;18.40;60.29;101507.63;5070214;28;45345;-57
2022/06/09 07:58:06;;;;;;;;;10.00;5.75;;;;;18.44;60.20;101500.25;5069690;28;46090;-54
2022/06/09 08:00:32;;;;;;;;;4.75;3.50;;;;;18.48;60.19;101499.03;5072165;28;45795;-51
2022/06/09 08:02:59;;;;;;;;;7.50;4.50;;;;;18.53;59.75;101496.84;5071465;28;45703;-50
2022/06/09 08:05:26;;;;;;;;;8.00;5.00;;;;;18.53;59.81;101497.69;5070150;28;45505;-54
2022/06/09 08:07:52;;;;;;;;;6.50;4.25;;;;;18.57;60.07;101501.81;5071296;28;46041;-53
2022/06/09 08:10:22;;;;;;;;;4.00;4.00;;;;;18.58;59.97;101505.34;5068430;28;45540;-54
2022/06/09 08:12:51;;;;;;;;;7.50;4.50;;;;;18.62;59.70;101512.09;5068862;28;45404;-55
2022/06/09 08:15:18;;;;;;;;;5.75;5.00;;;;;18.63;59.88;101516.47;5071823;27;45453;-53
2022/06/09 08:17:43;;;;;;;;;5.00;3.00;;;;;18.60;59.46;101512.22;5067255;28;45898;-52
2022/06/09 08:20:10;;;;;;;;;6.25;3.75;;;;;18.63;59.43;101522.66;5070045;28;45378;-53
2022/06/09 08:22:40;;;;;;;;;5.50;3.00;;;;;18.69;59.36;101521.34;5071439;28;45363;-53
2022/06/09 08:25:08;;;;;;;;;8.75;6.00;;;;;18.77;59.18;101528.72;5070340;28;45498;-52
2022/06/09 08:27:34;;;;;;;;;6.50;4.00;;;;;18.81;59.25;101520.38;5069407;28;46061;-53
2022/06/09 08:29:59;;;;;;;;;11.50;5.25;;;;;18.76;58.77;101535.91;5069330;28;45305;-54
2022/06/09 08:32:25;;;;;;;;;9.50;6.00;;;;;18.75;58.99;101528.88;5070993;28;45274;-57
2022/06/09 08:34:50;;;;;;;;;7.50;6.00;;;;;18.82;58.95;101527.41;5069343;28;45327;-55
2022/06/09 08:37:16;;;;;;;;;6.00;5.00;;;;;18.90;58.86;101540.13;5060758;28;46166;-56
2022/06/09 08:39:41;;;;;;;;;8.50;5.00;;;;;18.93;59.06;101538.03;5060280;28;45315;-55
2022/06/09 08:42:15;;;;;;;;;11.00;5.50;;;;;18.95;58.45;101548.59;5061104;28;45385;-55
2022/06/09 08:44:47;;;;;;;;;5.00;5.00;;;;;19.00;58.73;101540.22;5061337;28;45545;-56
2022/06/09 08:47:40;;;;;;;;;5.75;5.00;;;;;19.06;58.12;101543.22;5061277;28;45378;-55
2022/06/09 08:50:10;;;;;;;;;9.50;5.00;;;;;19.13;57.94;101532.91;5061220;28;45493;-56
2022/06/09 08:53:00;;;;;;;;;9.25;5.00;;;;;19.19;58.12;101530.53;5061327;28;45243;-56
2022/06/09 08:55:44;;;;;;;;;6.50;4.50;;;;;19.17;58.08;101535.16;5061214;28;45435;-57
2022/06/09 08:58:23;;;;;;;;;4.25;4.00;;;;;19.20;58.08;101534.94;5061041;28;46132;-56
2022/06/09 09:01:04;;;;;;;;;5.25;4.00;;;;;19.27;57.79;101529.91;5061070;28;45438;-56
2022/06/09 09:03:57;;;;;;;;;7.75;6.00;;;;;19.38;57.73;101521.00;5060992;28;45338;-55
2022/06/09 09:06:34;;;;;;;;;5.50;4.50;;;;;19.41;57.65;101524.25;5056798;28;45529;-56
2022/06/09 09:09:22;;;;;;;;;8.00;6.00;;;;;19.44;57.00;101528.50;5060807;28;45350;-56
2022/06/09 09:12:00;;;;;;;;;6.00;4.50;;;;;19.46;57.37;101527.41;5061092;28;45410;-56
2022/06/09 09:14:51;;;;;;;;;5.75;4.00;;;;;19.48;57.21;101528.13;5048498;28;45523;-53
2022/06/09 09:17:32;;;;;;;;;9.25;4.50;;;;;19.45;57.01;101531.06;5060946;28;45324;-55
2022/06/09 09:20:14;;;;;;;;;6.00;4.00;;;;;19.50;56.60;101523.47;5060786;28;46228;-56
2022/06/09 09:23:07;;;;;;;;;6.00;4.00;;;;;19.58;56.53;101527.38;5047238;28;45286;-54
2022/06/09 09:25:44;;;;;;;;;6.25;2.75;;;;;19.67;56.68;101531.94;5059258;28;45343;-56
2022/06/09 09:28:21;;;;;;;;;6.00;4.50;;;;;19.69;56.34;101538.00;5060499;28;45497;-56
2022/06/09 09:30:59;;;;;;;;;3.00;3.00;;;;;19.72;56.59;101537.75;5047417;28;46154;-56
2022/06/09 09:33:27;;;;;;;;;6.00;4.75;;;;;19.74;56.39;101538.44;5059446;28;45490;-56
2022/06/09 09:36:00;;;;;;;;;7.00;4.00;;;;;19.71;55.97;101536.88;5060809;28;45299;-56
2022/06/09 09:38:42;;;;;;;;;4.25;3.00;;;;;19.70;56.21;101535.19;5060712;28;45581;-56
2022/06/09 09:41:25;;;;;;;;;7.25;4.00;;;;;19.76;56.04;101533.84;5060480;28;45969;-56
2022/06/09 09:43:51;;;;;;;;;7.00;5.00;;;;;19.82;55.58;101538.63;5048219;28;45473;-56
2022/06/09 09:46:25;;;;;;;;;3.75;3.75;;;;;19.98;56.11;101535.50;5064070;28;45220;-56
2022/06/09 09:48:50;;;;;;;;;8.00;3.00;;;;;20.11;55.47;101521.91;5064213;28;45471;-56
2022/06/09 09:51:16;;;;;;;;;5.00;3.00;;;;;20.22;55.60;101536.06;5063926;28;46023;-56
2022/06/09 09:53:48;;;;;;;;;5.00;3.00;;;;;20.30;55.39;101544.28;5064287;28;45444;-56
2022/06/09 09:56:16;;;;;;;;;4.50;2.75;;;;;20.43;55.29;101552.06;5063971;28;45180;-56
2022/06/09 09:58:48;;;;;;;;;5.25;2.75;;;;;20.48;55.37;101549.00;5064018;28;45448;-56
2022/06/09 10:01:16;;;;;;;;;4.25;3.00;;;;;20.59;55.28;101546.22;5063691;28;46073;-56
2022/06/09 10:09:36;;;;;;;;;2.75;2.00;;;;;20.79;54.72;101547.97;5063850;28;45374;-56
2022/06/09 10:12:08;;;;;;;;;3.00;2.00;;;;;20.86;54.42;101559.00;5063632;28;45438;-57
2022/06/09 10:14:51;;;;;;;;;5.25;3.00;;;;;20.90;54.33;101545.19;5063387;28;45357;-56
2022/06/09 10:17:27;;;;;;;;;3.50;2.00;;;;;20.88;54.40;101554.34;5063330;28;45189;-57
2022/06/09 10:20:28;;;;;;;;;3.00;2.00;;;;;20.80;54.25;101557.72;5063678;28;45320;-56
2022/06/09 10:23:16;;;;;;;;;5.00;3.25;;;;;20.72;53.89;101565.56;5042560;28;45532;-56
2022/06/09 10:25:51;;;;;;;;;4.00;3.00;;;;;20.62;53.89;101572.75;5063197;28;45374;-58
2022/06/09 10:28:26;;;;;;;;;3.75;3.00;;;;;20.54;53.53;101564.53;5063290;28;45322;-56
2022/06/09 10:31:02;;;;;;;;;3.25;2.75;;;;;20.48;53.58;101575.78;5050298;28;45442;-56
2022/06/09 10:33:32;;;;;;;;;4.50;3.00;;;;;20.40;53.63;101576.41;5062706;28;45302;-57
2022/06/09 10:36:37;;;;;;;;;3.50;2.00;;;;;20.32;53.34;101566.38;5063198;28;45374;-56
2022/06/09 10:39:13;;;;;;;;;4.50;3.50;;;;;20.29;53.38;101566.63;5050955;28;45577;-56
2022/06/09 10:41:45;;;;;;;;;4.75;3.00;;;;;20.32;53.38;101570.88;5063192;28;45254;-56
2022/06/09 10:44:22;;;;;;;;;5.25;2.25;;;;;20.38;53.29;101581.06;5062794;28;45248;-56
2022/06/09 10:56:08;;;;;;;;;5.75;3.00;;;;;20.73;53.21;101569.09;5062595;28;45898;-56
2022/06/09 10:58:39;;;;;;;;;3.75;2.50;;;;;20.79;53.08;101587.31;5051145;28;45347;-56
2022/06/09 11:01:05;;;;;;;;;3.00;3.00;;;;;20.81;53.01;101580.81;5062927;28;45256;-56
2022/06/09 11:03:39;;;;;;;;;2.00;0.00;;;;;20.91;53.16;101583.50;5061593;28;45634;-56
2022/06/09 11:06:35;;;;;;;;;4.00;3.00;;;;;21.00;52.83;101585.38;5061511;28;46179;-56
2022/06/09 11:09:25;;;;;;;;;9.75;7.25;;;;;21.04;52.62;101585.94;5062685;28;45252;-56
2022/06/09 11:12:05;;;;;;;;;5.50;3.25;;;;;21.07;52.49;101599.06;5062720;28;45307;-56
2022/06/09 11:14:46;;;;;;;;;4.00;2.75;;;;;21.12;52.52;101602.19;5049895;28;45334;-59
2022/06/09 11:17:49;;;;;;;;;3.00;3.00;;;;;21.16;52.65;101599.06;5062383;28;45323;-57
2022/06/09 11:20:42;;;;;;;;;5.50;1.50;;;;;21.24;52.57;101592.16;5062546;28;45303;-57
2022/06/09 11:23:26;;;;;;;;;2.00;2.00;;;;;21.25;52.19;101588.50;5052955;28;45370;-56
2022/06/09 11:25:59;;;;;;;;;2.50;0.75;;;;;21.28;52.09;101589.13;5062382;28;45285;-58
2022/06/09 11:28:24;;;;;;;;;3.00;2.00;;;;;21.34;52.05;101590.41;5061822;28;45242;-57
2022/06/09 11:31:19;;;;;;;;;3.25;2.50;;;;;21.36;51.92;101599.13;5061985;28;45426;-56
2022/06/09 11:33:58;;;;;;;;;3.50;1.50;;;;;21.41;51.89;101596.91;5062374;28;45285;-57
2022/06/09 11:36:33;;;;;;;;;4.00;2.00;;;;;21.39;51.83;101602.38;5062681;28;45370;-57
2022/06/09 11:39:01;;;;;;;;;2.75;2.50;;;;;21.38;51.57;101592.66;5049352;27;45444;-56
2022/06/09 11:41:48;;;;;;;;;4.00;2.00;;;;;21.37;51.39;101590.97;5062163;28;45363;-57
2022/06/09 11:44:26;;;;;;;;;3.50;1.50;;;;;21.38;51.44;101592.66;5062358;28;45393;-57
2022/06/09 11:46:55;;;;;;;;;3.50;2.50;;;;;21.44;51.30;101601.97;5062194;28;45466;-57
2022/06/09 11:49:36;;;;;;;;;3.00;2.00;;;;;21.45;51.42;101599.13;5061936;28;45342;-56
2022/06/09 11:52:05;;;;;;;;;0.50;0.50;;;;;21.44;51.25;101599.28;5062294;28;45272;-57
2022/06/09 11:54:56;;;;;;;;;2.75;1.50;;;;;21.46;51.24;101594.63;5062164;28;45430;-57
2022/06/09 11:57:40;;;;;;;;;3.50;3.00;;;;;21.49;50.86;101597.03;5062568;28;45310;-58
2022/06/09 12:00:24;;;;;;;;;3.50;1.00;;;;;21.56;50.64;101598.16;5050884;28;45252;-56
2022/06/09 12:03:15;;;;;;;;;4.75;2.00;;;;;21.64;50.75;101589.41;5062049;28;45420;-57
2022/06/09 12:06:11;;;;;;;;;2.50;2.50;;;;;21.74;50.64;101603.66;5062346;28;45270;-57
2022/06/09 12:08:59;;;;;;;;;1.25;0.25;;;;;21.85;50.14;101598.13;5061651;28;45268;-56